Startpagina
METAR-TAF:

METAR-TAF

Vliegvelden :

Palmer, Alaska, Verenigde Staten

breedte: 61-36N, lengte: 149-05W, hoogte: 74 m

Actueel weer

Dit bericht is 32 minuten geleden gemaakt, om 21:53 UTC
Weinig wind
Temperatuur 6°C
Vochtigheid 61%
Druk 1000 hPa
Zicht: 16.1 km
Verspreide wolken op 8000 ft
Gebroken wolken op 14000 ft

METAR: PAAQ 192153Z 00000KT 10SM SCT080 BKN140 06/M01 A2952 RMK AO2 SLP999 T00611011 $

Tijdstip: 14:25 (22:25 UTC)

Verwachting

Dit bericht is 5 uur en het 2 minuten geleden gemaakt, om 17:23 UTC
Verwachting geldig van 19 om 18 UTC tot 20 om 18 UTC
Wind 5 kt uit variabele richting
Zicht: 10 km
Verspreide wolken op 8000 ft
Gebroken wolken op 10000 ft

TAF: PAAQ 191723Z 1918/2018 VRB05KT P6SM SCT080 BKN100

Waarnemingen en weersverwachtingen van meer dan 4000 vliegvelden (METAR en TAF).

De beschikbare stations zijn de gele en rode punten op de kaart.

Ga met uw muis naar het station om de naam te zien.

Klik dan om waarnemingen en weersverwachtingen te zien.

kaart wijzigen: klik op de groene knoppen met een zwart kruis om in te zoomen, op de groene knop met een streepje om uit te zoomen of op de groene pijlen voor aangrenzende kaarten.


METAR-TAF: